Nettleham, United Kingdom
Current Conditions -  °F | °C
As of 9:50 PM on Friday 19 Dec 2014 (Local Time) from EGXP Reporting Station
Few Clouds Few Clouds  
Wind Chill: 32°   Ceiling: Unl
Heat Index: 41°   Visibility: 6mi
Dew Point: 37°   Wind: 21mph
Humidity: 87%   Direction: 260°W
Pressure: 30"   Gusts: NA
Location:  53.27°N, 0.49°W
Report Text: EGXP 192150Z AUTO 26018KT 9999 // FEW022/// 05/03 Q1016
Loading
Personal Weather Stations






























Interactive Weather Map New forecast layout! Learn more

10-Day Weather Forecast

Advertisements
Track Severe Weather on mobile